Time,TemperatureF,DewpointF,PressureIn,WindDirection,WindDirectionDegrees,WindSpeedMPH,WindSpeedGustMPH,Humidity,HourlyPrecipIn,Conditions,Clouds,dailyrainin,SoftwareType,DateUTC
2013-03-18 00:00:00,42.1,39.1,30.19,East,81,9.0,9.0,89,0.00,,---,0.00,VWS V14.01,2013-03-18 04:00:00,
2013-03-18 00:05:00,41.9,38.9,30.19,East,92,8.0,8.0,89,0.00,,---,0.00,VWS V14.01,2013-03-18 04:05:00,
2013-03-18 00:10:00,41.9,39.2,30.20,ENE,69,4.0,8.0,90,0.00,,---,0.00,VWS V14.01,2013-03-18 04:10:00,
2013-03-18 00:15:00,41.7,39.3,30.19,ENE,58,5.0,13.0,91,0.00,,---,0.00,VWS V14.01,2013-03-18 04:15:00,
2013-03-18 00:20:00,41.7,39.3,30.19,ENE,71,9.0,10.0,91,0.00,,---,0.00,VWS V14.01,2013-03-18 04:20:00,
2013-03-18 00:25:00,41.5,39.3,30.19,East,88,10.0,14.0,92,0.00,,---,0.00,VWS V14.01,2013-03-18 04:25:00,
2013-03-18 00:30:00,41.5,39.3,30.19,ENE,71,5.0,9.0,92,0.00,,---,0.00,VWS V14.01,2013-03-18 04:30:00,
2013-03-18 00:35:00,41.4,39.2,30.19,ENE,75,9.0,9.0,92,0.00,,---,0.00,VWS V14.01,2013-03-18 04:35:00,
2013-03-18 00:40:00,41.4,39.5,30.19,East,83,9.0,11.0,93,0.00,,---,0.00,VWS V14.01,2013-03-18 04:40:00,
2013-03-18 00:45:00,41.3,39.4,30.19,ENE,77,8.0,10.0,93,0.00,,---,0.00,VWS V14.01,2013-03-18 04:45:00,
2013-03-18 00:50:00,41.3,39.4,30.18,ENE,76,12.0,13.0,93,0.00,,---,0.00,VWS V14.01,2013-03-18 04:50:00,
2013-03-18 00:55:00,41.3,39.4,30.18,ESE,107,8.0,8.0,93,0.00,,---,0.00,VWS V14.01,2013-03-18 04:55:00,
2013-03-18 01:00:00,41.2,39.3,30.18,East,90,8.0,12.0,93,0.00,,---,0.00,VWS V14.01,2013-03-18 05:00:00,
2013-03-18 01:05:00,41.3,39.7,30.18,East,86,6.0,7.0,94,0.00,,---,0.00,VWS V14.01,2013-03-18 05:05:00,
2013-03-18 01:10:00,41.2,39.6,30.18,ENE,78,8.0,11.0,94,0.00,,---,0.00,VWS V14.01,2013-03-18 05:10:00,
2013-03-18 01:15:00,41.2,39.6,30.18,ENE,69,7.0,11.0,94,0.00,,---,0.00,VWS V14.01,2013-03-18 05:15:00,
2013-03-18 01:20:00,41.2,39.6,30.18,East,80,8.0,16.0,94,0.00,,---,0.00,VWS V14.01,2013-03-18 05:20:00,
2013-03-18 01:25:00,41.2,39.6,30.18,ENE,76,8.0,9.0,94,0.00,,---,0.00,VWS V14.01,2013-03-18 05:25:00,
2013-03-18 01:30:00,41.2,39.6,30.18,East,93,16.0,16.0,94,0.00,,---,0.00,VWS V14.01,2013-03-18 05:30:00,
2013-03-18 01:35:00,41.1,39.5,30.18,East,88,8.0,10.0,94,0.00,,---,0.00,VWS V14.01,2013-03-18 05:35:00,
2013-03-18 01:40:00,41.1,39.5,30.17,ENE,76,7.0,10.0,94,0.00,,---,0.00,VWS V14.01,2013-03-18 05:40:00,
2013-03-18 01:45:00,41.1,39.5,30.17,ENE,78,8.0,10.0,94,0.00,,---,0.00,VWS V14.01,2013-03-18 05:45:00,
2013-03-18 01:50:00,41.1,39.5,30.18,ENE,73,8.0,8.0,94,0.00,,---,0.00,VWS V14.01,2013-03-18 05:50:00,
2013-03-18 01:54:00,41.1,39.5,30.18,East,88,7.0,8.0,94,0.00,,---,0.00,VWS V14.01,2013-03-18 05:54:00,
2013-03-18 01:59:00,41.1,39.5,30.18,East,88,7.0,9.0,94,0.00,,---,0.00,VWS V14.01,2013-03-18 05:59:00,
2013-03-18 02:04:00,41.0,39.4,30.18,East,88,13.0,13.0,94,0.00,,---,0.00,VWS V14.01,2013-03-18 06:04:00,
2013-03-18 02:09:00,41.0,39.4,30.18,ENE,74,8.0,10.0,94,0.00,,---,0.00,VWS V14.01,2013-03-18 06:09:00,
2013-03-18 02:14:00,40.8,39.2,30.18,East,81,16.0,17.0,94,0.00,,---,0.00,VWS V14.01,2013-03-18 06:14:00,
2013-03-18 02:19:00,40.7,38.8,30.18,ENE,78,8.0,12.0,93,0.00,,---,0.00,VWS V14.01,2013-03-18 06:19:00,
2013-03-18 02:24:00,40.7,38.8,30.18,ENE,70,10.0,10.0,93,0.00,,---,0.00,VWS V14.01,2013-03-18 06:24:00,
2013-03-18 02:29:00,40.6,38.7,30.18,ENE,77,11.0,13.0,93,0.00,,---,0.00,VWS V14.01,2013-03-18 06:29:00,
2013-03-18 02:34:00,40.5,38.6,30.18,ENE,76,11.0,11.0,93,0.00,,---,0.00,VWS V14.01,2013-03-18 06:34:00,
2013-03-18 02:39:00,40.5,38.6,30.19,NE,55,5.0,11.0,93,0.00,,---,0.00,VWS V14.01,2013-03-18 06:39:00,
2013-03-18 02:44:00,40.4,38.5,30.18,ENE,73,7.0,10.0,93,0.00,,---,0.00,VWS V14.01,2013-03-18 06:44:00,
2013-03-18 02:49:00,40.4,38.5,30.18,East,92,9.0,9.0,93,0.00,,---,0.00,VWS V14.01,2013-03-18 06:49:00,
2013-03-18 02:54:00,40.3,38.7,30.18,East,88,10.0,10.0,94,0.00,,---,0.00,VWS V14.01,2013-03-18 06:54:00,
2013-03-18 02:59:00,40.3,38.7,30.18,ESE,102,10.0,10.0,94,0.00,,---,0.00,VWS V14.01,2013-03-18 06:59:00,
2013-03-18 03:04:00,40.3,38.7,30.18,ENE,66,7.0,7.0,94,0.00,,---,0.00,VWS V14.01,2013-03-18 07:04:00,
2013-03-18 03:09:00,40.2,38.6,30.18,ENE,70,7.0,7.0,94,0.00,,---,0.00,VWS V14.01,2013-03-18 07:09:00,
2013-03-18 03:14:00,40.1,38.5,30.18,ENE,74,7.0,7.0,94,0.00,,---,0.00,VWS V14.01,2013-03-18 07:14:00,
2013-03-18 03:19:00,40.0,38.4,30.19,ENE,70,7.0,9.0,94,0.00,,---,0.00,VWS V14.01,2013-03-18 07:19:00,
2013-03-18 03:24:00,39.8,38.2,30.18,ENE,68,11.0,11.0,94,0.00,,---,0.00,VWS V14.01,2013-03-18 07:24:00,
2013-03-18 03:29:00,39.6,38.0,30.18,ENE,57,5.0,9.0,94,0.00,,---,0.00,VWS V14.01,2013-03-18 07:29:00,
2013-03-18 03:34:00,39.5,37.9,30.18,ENE,65,7.0,8.0,94,0.00,,---,0.00,VWS V14.01,2013-03-18 07:34:00,
2013-03-18 03:39:00,39.5,37.9,30.18,ENE,72,5.0,8.0,94,0.00,,---,0.00,VWS V14.01,2013-03-18 07:39:00,
2013-03-18 03:44:00,39.5,37.9,30.17,ENE,72,4.0,6.0,94,0.00,,---,0.00,VWS V14.01,2013-03-18 07:44:00,
2013-03-18 03:49:00,39.5,38.2,30.17,ENE,76,5.0,8.0,95,0.00,,---,0.00,VWS V14.01,2013-03-18 07:49:00,
2013-03-18 03:54:00,39.6,38.3,30.18,ENE,74,10.0,13.0,95,0.00,,---,0.00,VWS V14.01,2013-03-18 07:54:00,
2013-03-18 03:59:00,39.5,38.2,30.18,NE,48,7.0,9.0,95,0.00,,---,0.00,VWS V14.01,2013-03-18 07:59:00,
2013-03-18 04:04:00,39.4,37.8,30.17,ENE,77,10.0,16.0,94,0.00,,---,0.00,VWS V14.01,2013-03-18 08:04:00,
2013-03-18 04:09:00,39.3,37.7,30.17,ENE,63,9.0,11.0,94,0.00,,---,0.00,VWS V14.01,2013-03-18 08:09:00,
2013-03-18 04:14:00,39.3,38.0,30.17,East,86,9.0,10.0,95,0.00,,---,0.00,VWS V14.01,2013-03-18 08:14:00,
2013-03-18 04:19:00,39.3,38.0,30.17,ENE,74,11.0,11.0,95,0.00,,---,0.00,VWS V14.01,2013-03-18 08:19:00,
2013-03-18 04:24:00,39.3,38.0,30.17,East,83,8.0,9.0,95,0.00,,---,0.00,VWS V14.01,2013-03-18 08:24:00,
2013-03-18 04:29:00,39.3,38.0,30.17,NE,49,5.0,7.0,95,0.00,,---,0.00,VWS V14.01,2013-03-18 08:29:00,
2013-03-18 04:34:00,39.3,38.0,30.17,East,86,6.0,7.0,95,0.00,,---,0.00,VWS V14.01,2013-03-18 08:34:00,
2013-03-18 04:39:00,39.3,38.0,30.17,East,80,6.0,7.0,95,0.00,,---,0.00,VWS V14.01,2013-03-18 08:39:00,
2013-03-18 04:44:00,39.2,37.9,30.17,ENE,58,10.0,13.0,95,0.00,,---,0.00,VWS V14.01,2013-03-18 08:44:00,
2013-03-18 04:49:00,39.2,37.9,30.17,East,88,6.0,10.0,95,0.00,,---,0.00,VWS V14.01,2013-03-18 08:49:00,
2013-03-18 04:54:00,39.2,37.9,30.17,East,84,8.0,9.0,95,0.00,,---,0.00,VWS V14.01,2013-03-18 08:54:00,
2013-03-18 04:59:00,39.2,37.9,30.17,East,88,5.0,5.0,95,0.00,,---,0.00,VWS V14.01,2013-03-18 08:59:00,
2013-03-18 05:04:00,39.2,37.9,30.17,East,82,10.0,11.0,95,0.00,,---,0.00,VWS V14.01,2013-03-18 09:04:00,
2013-03-18 05:09:00,39.1,37.8,30.17,East,85,9.0,9.0,95,0.00,,---,0.00,VWS V14.01,2013-03-18 09:09:00,
2013-03-18 05:14:00,39.0,37.7,30.17,NE,51,8.0,15.0,95,0.00,,---,0.00,VWS V14.01,2013-03-18 09:14:00,
2013-03-18 05:19:00,38.9,37.6,30.17,NE,48,4.0,9.0,95,0.00,,---,0.00,VWS V14.01,2013-03-18 09:19:00,
2013-03-18 05:24:00,38.9,37.6,30.17,ENE,62,9.0,14.0,95,0.00,,---,0.00,VWS V14.01,2013-03-18 09:24:00,
2013-03-18 05:29:00,38.9,37.6,30.18,NE,36,5.0,5.0,95,0.00,,---,0.00,VWS V14.01,2013-03-18 09:29:00,
2013-03-18 05:34:00,38.9,37.6,30.19,ENE,61,4.0,5.0,95,0.00,,---,0.00,VWS V14.01,2013-03-18 09:34:00,
2013-03-18 05:39:00,38.9,37.6,30.18,NE,53,4.0,5.0,95,0.00,,---,0.00,VWS V14.01,2013-03-18 09:39:00,
2013-03-18 05:44:00,38.9,37.6,30.19,NE,47,5.0,5.0,95,0.00,,---,0.00,VWS V14.01,2013-03-18 09:44:00,
2013-03-18 05:49:00,38.9,37.6,30.19,ENE,71,4.0,4.0,95,0.00,,---,0.00,VWS V14.01,2013-03-18 09:49:00,
2013-03-18 05:54:00,38.9,37.6,30.19,ENE,68,7.0,10.0,95,0.00,,---,0.00,VWS V14.01,2013-03-18 09:54:00,
2013-03-18 05:59:00,38.8,37.5,30.20,ENE,74,11.0,14.0,95,0.00,,---,0.00,VWS V14.01,2013-03-18 09:59:00,
2013-03-18 06:04:00,38.8,37.5,30.20,ENE,62,4.0,5.0,95,0.00,,---,0.00,VWS V14.01,2013-03-18 10:04:00,
2013-03-18 06:09:00,38.8,37.5,30.20,ENE,78,9.0,9.0,95,0.00,,---,0.00,VWS V14.01,2013-03-18 10:09:00,
2013-03-18 06:14:00,38.8,37.5,30.20,ENE,71,7.0,7.0,95,0.00,,---,0.00,VWS V14.01,2013-03-18 10:14:00,
2013-03-18 06:19:00,38.9,37.6,30.21,ENE,76,7.0,7.0,95,0.00,,---,0.00,VWS V14.01,2013-03-18 10:19:00,
2013-03-18 06:24:00,38.8,37.5,30.21,ENE,65,7.0,7.0,95,0.00,,---,0.00,VWS V14.01,2013-03-18 10:24:00,
2013-03-18 06:29:00,38.7,37.4,30.21,ENE,67,11.0,11.0,95,0.00,,---,0.00,VWS V14.01,2013-03-18 10:29:00,
2013-03-18 06:34:00,38.7,37.4,30.21,ENE,57,5.0,8.0,95,0.00,,---,0.00,VWS V14.01,2013-03-18 10:34:00,
2013-03-18 06:39:00,38.6,37.3,30.21,ENE,67,7.0,7.0,95,0.00,,---,0.00,VWS V14.01,2013-03-18 10:39:00,
2013-03-18 06:44:00,38.7,37.4,30.21,NE,38,4.0,5.0,95,0.00,,---,0.00,VWS V14.01,2013-03-18 10:44:00,
2013-03-18 06:49:00,38.7,37.4,30.22,NE,53,6.0,6.0,95,0.00,,---,0.00,VWS V14.01,2013-03-18 10:49:00,
2013-03-18 06:54:00,38.6,37.3,30.22,ENE,78,7.0,8.0,95,0.00,,---,0.00,VWS V14.01,2013-03-18 10:54:00,
2013-03-18 06:59:00,38.5,37.2,30.22,ENE,60,5.0,7.0,95,0.00,,---,0.00,VWS V14.01,2013-03-18 10:59:00,
2013-03-18 07:04:00,38.5,37.2,30.22,NE,36,6.0,9.0,95,0.00,,---,0.00,VWS V14.01,2013-03-18 11:04:00,
2013-03-18 07:09:00,38.4,37.1,30.22,East,79,11.0,11.0,95,0.00,,---,0.00,VWS V14.01,2013-03-18 11:09:00,
2013-03-18 07:14:00,38.4,37.1,30.22,NE,55,4.0,8.0,95,0.00,,---,0.00,VWS V14.01,2013-03-18 11:14:00,
2013-03-18 07:19:00,38.4,37.1,30.21,ENE,72,7.0,7.0,95,0.00,,---,0.00,VWS V14.01,2013-03-18 11:19:00,
2013-03-18 07:24:00,38.4,37.1,30.21,ENE,74,9.0,9.0,95,0.00,,---,0.00,VWS V14.01,2013-03-18 11:24:00,
2013-03-18 07:29:00,38.5,37.2,30.21,East,94,9.0,9.0,95,0.00,,---,0.00,VWS V14.01,2013-03-18 11:29:00,
2013-03-18 07:34:00,38.5,37.2,30.22,East,85,2.0,2.0,95,0.00,,---,0.00,VWS V14.01,2013-03-18 11:34:00,
2013-03-18 07:39:00,38.5,37.2,30.22,ENE,69,10.0,10.0,95,0.00,,---,0.00,VWS V14.01,2013-03-18 11:39:00,
2013-03-18 07:44:00,38.4,37.1,30.22,ENE,77,4.0,5.0,95,0.00,,---,0.00,VWS V14.01,2013-03-18 11:44:00,
2013-03-18 07:49:00,38.4,37.1,30.21,ENE,70,7.0,7.0,95,0.00,,---,0.00,VWS V14.01,2013-03-18 11:49:00,
2013-03-18 07:54:00,38.3,37.0,30.20,ENE,76,12.0,12.0,95,0.00,,---,0.00,VWS V14.01,2013-03-18 11:54:00,
2013-03-18 07:59:00,38.3,37.0,30.21,NE,55,9.0,9.0,95,0.00,,---,0.00,VWS V14.01,2013-03-18 11:59:00,
2013-03-18 08:04:00,38.3,37.0,30.21,ENE,73,10.0,12.0,95,0.00,,---,0.00,VWS V14.01,2013-03-18 12:04:00,
2013-03-18 08:09:00,38.3,37.0,30.22,ENE,71,9.0,10.0,95,0.00,,---,0.00,VWS V14.01,2013-03-18 12:09:00,
2013-03-18 08:14:00,38.3,37.0,30.22,ENE,76,9.0,9.0,95,0.00,,---,0.00,VWS V14.01,2013-03-18 12:14:00,
2013-03-18 08:19:00,38.3,36.7,30.22,East,88,9.0,11.0,94,0.00,,---,0.00,VWS V14.01,2013-03-18 12:19:00,
2013-03-18 08:24:00,38.3,36.7,30.22,ENE,74,4.0,4.0,94,0.00,,---,0.00,VWS V14.01,2013-03-18 12:24:00,
2013-03-18 08:29:00,38.4,36.8,30.22,NE,50,8.0,8.0,94,0.00,,---,0.00,VWS V14.01,2013-03-18 12:29:00,
2013-03-18 08:34:00,38.4,36.8,30.23,East,89,8.0,8.0,94,0.00,,---,0.00,VWS V14.01,2013-03-18 12:34:00,
2013-03-18 08:39:00,38.4,36.8,30.22,East,88,5.0,5.0,94,0.00,,---,0.00,VWS V14.01,2013-03-18 12:39:00,
2013-03-18 08:44:00,38.5,37.2,30.21,ENE,74,11.0,11.0,95,0.00,,---,0.00,VWS V14.01,2013-03-18 12:44:00,
2013-03-18 08:49:00,38.5,37.2,30.20,ENE,74,7.0,7.0,95,0.00,,---,0.00,VWS V14.01,2013-03-18 12:49:00,
2013-03-18 08:54:00,38.4,37.1,30.20,East,82,13.0,13.0,95,0.00,,---,0.00,VWS V14.01,2013-03-18 12:54:00,
2013-03-18 08:59:00,38.5,37.2,30.21,ENE,63,5.0,5.0,95,0.00,,---,0.00,VWS V14.01,2013-03-18 12:59:00,
2013-03-18 09:04:00,38.5,37.2,30.22,ENE,73,10.0,10.0,95,0.00,,---,0.00,VWS V14.01,2013-03-18 13:04:00,
2013-03-18 09:09:00,38.5,37.2,30.23,NE,38,5.0,5.0,95,0.00,,---,0.00,VWS V14.01,2013-03-18 13:09:00,
2013-03-18 09:14:00,38.6,37.3,30.23,East,90,8.0,8.0,95,0.00,,---,0.00,VWS V14.01,2013-03-18 13:14:00,
2013-03-18 09:19:00,38.6,37.3,30.23,ENE,77,9.0,9.0,95,0.00,,---,0.00,VWS V14.01,2013-03-18 13:19:00,
2013-03-18 09:24:00,38.6,37.3,30.23,NE,42,3.0,4.0,95,0.00,,---,0.00,VWS V14.01,2013-03-18 13:24:00,
2013-03-18 09:29:00,38.6,37.3,30.23,ENE,68,8.0,9.0,95,0.00,,---,0.00,VWS V14.01,2013-03-18 13:29:00,
2013-03-18 09:34:00,38.6,37.3,30.23,NE,49,5.0,6.0,95,0.00,,---,0.00,VWS V14.01,2013-03-18 13:34:00,
2013-03-18 09:39:00,38.7,37.4,30.23,ENE,62,5.0,7.0,95,0.00,,---,0.00,VWS V14.01,2013-03-18 13:39:00,
2013-03-18 09:44:00,38.6,37.3,30.23,ENE,63,5.0,9.0,95,0.00,,---,0.00,VWS V14.01,2013-03-18 13:44:00,
2013-03-18 09:49:00,38.5,37.2,30.22,East,88,8.0,8.0,95,0.00,,---,0.00,VWS V14.01,2013-03-18 13:49:00,
2013-03-18 09:54:00,38.5,37.2,30.22,East,88,7.0,7.0,95,0.00,,---,0.00,VWS V14.01,2013-03-18 13:54:00,
2013-03-18 09:59:00,38.6,37.3,30.22,East,88,5.0,5.0,95,0.00,,---,0.00,VWS V14.01,2013-03-18 13:59:00,
2013-03-18 10:04:00,38.6,37.3,30.21,ENE,77,9.0,10.0,95,0.00,,---,0.00,VWS V14.01,2013-03-18 14:04:00,
2013-03-18 10:09:00,38.6,37.3,30.21,East,92,5.0,5.0,95,0.00,,---,0.00,VWS V14.01,2013-03-18 14:09:00,
2013-03-18 10:14:00,38.7,37.4,30.20,East,84,15.0,16.0,95,0.00,,---,0.00,VWS V14.01,2013-03-18 14:14:00,
2013-03-18 10:19:00,38.5,37.2,30.20,ENE,67,5.0,11.0,95,0.00,,---,0.00,VWS V14.01,2013-03-18 14:19:00,
2013-03-18 10:24:00,38.5,37.2,30.20,NE,45,6.0,6.0,95,0.00,,---,0.00,VWS V14.01,2013-03-18 14:24:00,
2013-03-18 10:29:00,38.7,37.4,30.20,NE,50,7.0,9.0,95,0.00,,---,0.00,VWS V14.01,2013-03-18 14:29:00,
2013-03-18 10:34:00,38.7,37.4,30.20,ENE,77,9.0,9.0,95,0.00,,---,0.00,VWS V14.01,2013-03-18 14:34:00,
2013-03-18 10:39:00,38.8,37.5,30.19,ENE,76,9.0,10.0,95,0.00,,---,0.00,VWS V14.01,2013-03-18 14:39:00,
2013-03-18 10:44:00,38.9,37.9,30.18,ENE,71,8.0,11.0,96,0.00,,---,0.00,VWS V14.01,2013-03-18 14:44:00,
2013-03-18 10:49:00,38.9,37.6,30.17,ENE,66,12.0,18.0,95,0.00,,---,0.00,VWS V14.01,2013-03-18 14:49:00,
2013-03-18 10:54:00,39.0,37.7,30.17,East,83,10.0,10.0,95,0.00,,---,0.00,VWS V14.01,2013-03-18 14:54:00,
2013-03-18 10:59:00,39.1,37.8,30.17,ENE,67,8.0,10.0,95,0.00,,---,0.00,VWS V14.01,2013-03-18 14:59:00,
2013-03-18 11:04:00,39.2,37.9,30.17,East,83,15.0,15.0,95,0.00,,---,0.00,VWS V14.01,2013-03-18 15:04:00,
2013-03-18 11:09:00,39.3,38.0,30.17,East,98,7.0,8.0,95,0.00,,---,0.00,VWS V14.01,2013-03-18 15:09:00,
2013-03-18 11:14:00,39.5,38.5,30.17,East,80,16.0,16.0,96,0.00,,---,0.00,VWS V14.01,2013-03-18 15:14:00,
2013-03-18 11:19:00,39.7,38.7,30.17,East,97,10.0,10.0,96,0.00,,---,0.00,VWS V14.01,2013-03-18 15:19:00,
2013-03-18 11:24:00,39.7,38.4,30.17,ENE,78,4.0,7.0,95,0.00,,---,0.00,VWS V14.01,2013-03-18 15:24:00,
2013-03-18 11:29:00,39.8,38.5,30.18,ENE,78,7.0,8.0,95,0.00,,---,0.00,VWS V14.01,2013-03-18 15:29:00,
2013-03-18 11:34:00,39.7,38.4,30.18,East,93,6.0,7.0,95,0.00,,---,0.00,VWS V14.01,2013-03-18 15:34:00,
2013-03-18 11:39:00,39.9,38.6,30.18,ENE,63,4.0,7.0,95,0.00,,---,0.00,VWS V14.01,2013-03-18 15:39:00,
2013-03-18 11:44:00,39.9,38.6,30.19,East,80,7.0,7.0,95,0.00,,---,0.00,VWS V14.01,2013-03-18 15:44:00,
2013-03-18 11:49:00,40.0,38.7,30.18,East,84,7.0,7.0,95,0.00,,---,0.00,VWS V14.01,2013-03-18 15:49:00,
2013-03-18 11:54:00,40.1,38.8,30.18,ENE,69,3.0,7.0,95,0.00,,---,0.00,VWS V14.01,2013-03-18 15:54:00,
2013-03-18 11:59:00,40.3,39.0,30.18,NE,53,4.0,7.0,95,0.00,,---,0.00,VWS V14.01,2013-03-18 15:59:00,
2013-03-18 12:04:00,40.2,38.9,30.18,ENE,76,5.0,7.0,95,0.00,,---,0.00,VWS V14.01,2013-03-18 16:04:00,
2013-03-18 12:09:00,40.2,38.9,30.17,ENE,70,7.0,7.0,95,0.00,,---,0.00,VWS V14.01,2013-03-18 16:09:00,
2013-03-18 12:14:00,40.3,39.0,30.17,East,90,5.0,7.0,95,0.00,,---,0.00,VWS V14.01,2013-03-18 16:14:00,
2013-03-18 12:18:00,40.4,39.1,30.17,ENE,67,5.0,10.0,95,0.00,,---,0.00,VWS V14.01,2013-03-18 16:18:00,
2013-03-18 12:23:00,40.4,39.1,30.17,NE,55,3.0,7.0,95,0.00,,---,0.00,VWS V14.01,2013-03-18 16:23:00,
2013-03-18 12:28:00,40.4,39.1,30.17,ENE,67,3.0,5.0,95,0.00,,---,0.00,VWS V14.01,2013-03-18 16:28:00,
2013-03-18 12:33:00,40.6,39.3,30.17,ENE,64,5.0,7.0,95,0.00,,---,0.00,VWS V14.01,2013-03-18 16:33:00,
2013-03-18 12:38:00,40.6,39.3,30.17,East,86,2.0,4.0,95,0.00,,---,0.00,VWS V14.01,2013-03-18 16:38:00,
2013-03-18 12:43:00,40.7,39.4,30.17,East,90,7.0,7.0,95,0.00,,---,0.00,VWS V14.01,2013-03-18 16:43:00,
2013-03-18 12:48:00,40.7,39.4,30.17,NE,51,2.0,2.0,95,0.00,,---,0.00,VWS V14.01,2013-03-18 16:48:00,
2013-03-18 12:53:00,40.7,39.4,30.17,ENE,78,2.0,3.0,95,0.00,,---,0.00,VWS V14.01,2013-03-18 16:53:00,
2013-03-18 12:58:00,40.7,39.4,30.16,East,95,5.0,7.0,95,0.00,,---,0.00,VWS V14.01,2013-03-18 16:58:00,
2013-03-18 13:03:00,40.7,39.4,30.16,East,80,6.0,7.0,95,0.00,,---,0.00,VWS V14.01,2013-03-18 17:03:00,
2013-03-18 13:08:00,40.9,39.6,30.16,ENE,65,4.0,5.0,95,0.00,,---,0.00,VWS V14.01,2013-03-18 17:08:00,
2013-03-18 13:13:00,40.9,39.6,30.16,East,98,6.0,6.0,95,0.00,,---,0.00,VWS V14.01,2013-03-18 17:13:00,
2013-03-18 13:18:00,41.1,39.8,30.15,ENE,76,4.0,5.0,95,0.00,,---,0.00,VWS V14.01,2013-03-18 17:18:00,
2013-03-18 13:23:00,41.1,39.8,30.15,ENE,61,2.0,2.0,95,0.00,,---,0.00,VWS V14.01,2013-03-18 17:23:00,
2013-03-18 13:28:00,41.2,39.9,30.16,ENE,68,3.0,3.0,95,0.00,,---,0.00,VWS V14.01,2013-03-18 17:28:00,
2013-03-18 13:33:00,41.1,39.5,30.15,ENE,62,3.0,4.0,94,0.00,,---,0.00,VWS V14.01,2013-03-18 17:33:00,
2013-03-18 13:38:00,41.1,39.5,30.15,ENE,67,4.0,4.0,94,0.00,,---,0.00,VWS V14.01,2013-03-18 17:38:00,
2013-03-18 13:43:00,41.1,39.5,30.14,East,90,2.0,3.0,94,0.00,,---,0.00,VWS V14.01,2013-03-18 17:43:00,
2013-03-18 13:48:00,41.2,39.9,30.14,East,84,0.0,1.0,95,0.00,,---,0.00,VWS V14.01,2013-03-18 17:48:00,
2013-03-18 13:53:00,41.3,40.0,30.14,ENE,78,3.0,3.0,95,0.00,,---,0.00,VWS V14.01,2013-03-18 17:53:00,
2013-03-18 13:58:00,41.4,40.1,30.14,East,92,2.0,2.0,95,0.00,,---,0.00,VWS V14.01,2013-03-18 17:58:00,
2013-03-18 14:03:00,41.4,39.8,30.13,East,86,5.0,6.0,94,0.00,,---,0.00,VWS V14.01,2013-03-18 18:03:00,
2013-03-18 14:08:00,41.6,40.3,30.12,ENE,61,4.0,4.0,95,0.00,,---,0.00,VWS V14.01,2013-03-18 18:08:00,
2013-03-18 14:13:00,41.6,40.3,30.11,East,92,6.0,7.0,95,0.00,,---,0.00,VWS V14.01,2013-03-18 18:13:00,
2013-03-18 14:18:00,41.7,40.4,30.12,East,88,5.0,5.0,95,0.00,,---,0.00,VWS V14.01,2013-03-18 18:18:00,
2013-03-18 14:23:00,41.7,40.1,30.12,ENE,58,2.0,3.0,94,0.00,,---,0.00,VWS V14.01,2013-03-18 18:23:00,
2013-03-18 14:28:00,41.8,40.5,30.10,ENE,62,1.0,2.0,95,0.00,,---,0.00,VWS V14.01,2013-03-18 18:28:00,
2013-03-18 14:33:00,42.0,40.7,30.10,ENE,73,3.0,3.0,95,0.00,,---,0.00,VWS V14.01,2013-03-18 18:33:00,
2013-03-18 14:38:00,42.0,40.4,30.10,ESE,108,4.0,7.0,94,0.00,,---,0.00,VWS V14.01,2013-03-18 18:38:00,
2013-03-18 14:43:00,42.1,40.5,30.09,ENE,78,2.0,3.0,94,0.00,,---,0.00,VWS V14.01,2013-03-18 18:43:00,
2013-03-18 14:48:00,42.1,40.5,30.09,East,80,5.0,5.0,94,0.00,,---,0.00,VWS V14.01,2013-03-18 18:48:00,
2013-03-18 14:53:00,42.0,40.4,30.09,East,96,6.0,7.0,94,0.00,,---,0.00,VWS V14.01,2013-03-18 18:53:00,
2013-03-18 14:58:00,42.0,40.4,30.09,NE,53,2.0,3.0,94,0.00,,---,0.00,VWS V14.01,2013-03-18 18:58:00,
2013-03-18 15:03:00,42.2,40.6,30.08,East,98,5.0,5.0,94,0.00,,---,0.00,VWS V14.01,2013-03-18 19:03:00,
2013-03-18 15:08:00,42.2,40.6,30.07,East,90,5.0,5.0,94,0.00,,---,0.00,VWS V14.01,2013-03-18 19:08:00,
2013-03-18 15:13:00,42.4,40.8,30.07,ENE,75,5.0,7.0,94,0.00,,---,0.00,VWS V14.01,2013-03-18 19:13:00,
2013-03-18 15:18:00,42.4,40.8,30.07,ENE,74,1.0,2.0,94,0.00,,---,0.00,VWS V14.01,2013-03-18 19:18:00,
2013-03-18 15:23:00,42.6,41.0,30.08,NNE,22,0.0,1.0,94,0.00,,---,0.00,VWS V14.01,2013-03-18 19:23:00,
2013-03-18 15:28:00,42.7,41.1,30.07,ENE,73,2.0,2.0,94,0.00,,---,0.00,VWS V14.01,2013-03-18 19:28:00,
2013-03-18 15:33:00,42.8,41.2,30.07,NE,49,1.0,1.0,94,0.00,,---,0.00,VWS V14.01,2013-03-18 19:33:00,
2013-03-18 15:38:00,42.8,41.2,30.06,East,81,2.0,2.0,94,0.00,,---,0.00,VWS V14.01,2013-03-18 19:38:00,
2013-03-18 15:43:00,43.1,41.5,30.06,SE,140,1.0,1.0,94,0.00,,---,0.00,VWS V14.01,2013-03-18 19:43:00,
2013-03-18 15:48:00,43.4,41.8,30.06,East,92,2.0,3.0,94,0.00,,---,0.00,VWS V14.01,2013-03-18 19:48:00,
2013-03-18 15:53:00,43.3,41.4,30.05,ESE,103,3.0,3.0,93,0.00,,---,0.00,VWS V14.01,2013-03-18 19:53:00,
2013-03-18 15:58:00,43.3,41.4,30.05,ENE,70,3.0,4.0,93,0.00,,---,0.00,VWS V14.01,2013-03-18 19:58:00,
2013-03-18 16:03:00,43.3,41.4,30.04,East,82,3.0,3.0,93,0.00,,---,0.00,VWS V14.01,2013-03-18 20:03:00,
2013-03-18 16:08:00,43.3,41.4,30.05,East,90,2.0,2.0,93,0.00,,---,0.00,VWS V14.01,2013-03-18 20:08:00,
2013-03-18 16:13:00,43.4,41.5,30.05,ENE,69,3.0,3.0,93,0.00,,---,0.00,VWS V14.01,2013-03-18 20:13:00,
2013-03-18 16:18:00,43.4,41.5,30.06,ENE,70,0.0,0.0,93,0.00,,---,0.00,VWS V14.01,2013-03-18 20:18:00,
2013-03-18 16:23:00,43.5,41.6,30.06,ENE,70,0.0,0.0,93,0.00,,---,0.00,VWS V14.01,2013-03-18 20:23:00,
2013-03-18 16:28:00,43.6,41.7,30.06,NE,53,2.0,2.0,93,0.00,,---,0.00,VWS V14.01,2013-03-18 20:28:00,
2013-03-18 16:33:00,43.5,41.6,30.06,NE,51,2.0,2.0,93,0.00,,---,0.00,VWS V14.01,2013-03-18 20:33:00,
2013-03-18 16:38:00,43.5,41.6,30.05,ENE,64,2.0,2.0,93,0.00,,---,0.00,VWS V14.01,2013-03-18 20:38:00,
2013-03-18 16:43:00,43.6,41.7,30.05,East,88,2.0,2.0,93,0.00,,---,0.00,VWS V14.01,2013-03-18 20:43:00,
2013-03-18 16:48:00,43.7,41.8,30.05,East,100,5.0,5.0,93,0.00,,---,0.00,VWS V14.01,2013-03-18 20:48:00,
2013-03-18 16:53:00,43.7,41.8,30.03,ENE,78,3.0,3.0,93,0.00,,---,0.00,VWS V14.01,2013-03-18 20:53:00,
2013-03-18 16:58:00,43.8,41.9,30.03,ESE,106,4.0,4.0,93,0.00,,---,0.00,VWS V14.01,2013-03-18 20:58:00,
2013-03-18 17:03:00,44.0,42.1,30.03,SW,231,1.0,2.0,93,0.00,,---,0.00,VWS V14.01,2013-03-18 21:03:00,
2013-03-18 17:08:00,44.2,42.3,30.03,SE,138,0.0,2.0,93,0.00,,---,0.00,VWS V14.01,2013-03-18 21:08:00,
2013-03-18 17:13:00,44.1,42.2,30.03,East,86,6.0,6.0,93,0.00,,---,0.00,VWS V14.01,2013-03-18 21:13:00,
2013-03-18 17:18:00,44.0,42.1,30.03,East,94,5.0,5.0,93,0.00,,---,0.00,VWS V14.01,2013-03-18 21:18:00,
2013-03-18 17:23:00,44.1,42.2,30.02,East,88,6.0,8.0,93,0.00,,---,0.00,VWS V14.01,2013-03-18 21:23:00,
2013-03-18 17:28:00,44.3,42.4,30.02,ESE,102,3.0,5.0,93,0.00,,---,0.00,VWS V14.01,2013-03-18 21:28:00,
2013-03-18 17:33:00,44.3,42.4,30.02,East,80,5.0,5.0,93,0.00,,---,0.00,VWS V14.01,2013-03-18 21:33:00,
2013-03-18 17:38:00,44.4,42.5,30.04,ENE,71,1.0,2.0,93,0.00,,---,0.00,VWS V14.01,2013-03-18 21:38:00,
2013-03-18 17:43:00,44.5,42.6,30.03,NE,53,2.0,3.0,93,0.00,,---,0.00,VWS V14.01,2013-03-18 21:43:00,
2013-03-18 17:48:00,44.5,42.3,30.04,ENE,67,2.0,2.0,92,0.00,,---,0.00,VWS V14.01,2013-03-18 21:48:00,
2013-03-18 17:53:00,44.6,42.4,30.03,ENE,70,1.0,2.0,92,0.00,,---,0.00,VWS V14.01,2013-03-18 21:53:00,
2013-03-18 17:58:00,44.6,42.4,30.03,NE,36,4.0,5.0,92,0.00,,---,0.00,VWS V14.01,2013-03-18 21:58:00,
2013-03-18 18:03:00,44.6,42.4,30.03,NE,49,3.0,3.0,92,0.00,,---,0.00,VWS V14.01,2013-03-18 22:03:00,
2013-03-18 18:08:00,44.5,42.3,30.03,NE,53,2.0,2.0,92,0.00,,---,0.00,VWS V14.01,2013-03-18 22:08:00,
2013-03-18 18:13:00,44.5,42.3,30.03,NE,53,2.0,4.0,92,0.00,,---,0.00,VWS V14.01,2013-03-18 22:13:00,
2013-03-18 18:18:00,44.6,42.7,30.03,NNE,26,3.0,3.0,93,0.00,,---,0.00,VWS V14.01,2013-03-18 22:18:00,
2013-03-18 18:23:00,44.5,42.3,30.02,ENE,63,5.0,5.0,92,0.00,,---,0.00,VWS V14.01,2013-03-18 22:23:00,
2013-03-18 18:28:00,44.5,42.3,30.02,ENE,67,2.0,5.0,92,0.00,,---,0.00,VWS V14.01,2013-03-18 22:28:00,
2013-03-18 18:33:00,44.4,42.5,30.04,NNW,338,0.0,0.0,93,0.00,,---,0.00,VWS V14.01,2013-03-18 22:33:00,
2013-03-18 18:38:00,44.4,42.5,30.03,NE,36,1.0,3.0,93,0.00,,---,0.00,VWS V14.01,2013-03-18 22:38:00,
2013-03-18 18:43:00,44.3,42.4,30.02,NNE,33,3.0,5.0,93,0.00,,---,0.00,VWS V14.01,2013-03-18 22:43:00,
2013-03-18 18:48:00,44.1,42.2,30.03,NNE,31,2.0,3.0,93,0.00,,---,0.00,VWS V14.01,2013-03-18 22:48:00,
2013-03-18 18:53:00,44.0,42.1,30.02,NE,50,5.0,5.0,93,0.00,,---,0.00,VWS V14.01,2013-03-18 22:53:00,
2013-03-18 18:58:00,44.0,42.1,30.02,NE,34,2.0,4.0,93,0.00,,---,0.00,VWS V14.01,2013-03-18 22:58:00,
2013-03-18 19:03:00,43.9,42.3,30.02,NE,44,4.0,6.0,94,0.00,,---,0.00,VWS V14.01,2013-03-18 23:03:00,
2013-03-18 19:08:00,43.9,42.3,30.02,ENE,64,3.0,5.0,94,0.00,,---,0.00,VWS V14.01,2013-03-18 23:08:00,
2013-03-18 19:13:00,43.8,42.2,30.01,ENE,57,5.0,6.0,94,0.00,,---,0.00,VWS V14.01,2013-03-18 23:13:00,
2013-03-18 19:18:00,43.8,42.2,30.00,NE,42,5.0,6.0,94,0.00,,---,0.00,VWS V14.01,2013-03-18 23:18:00,
2013-03-18 19:23:00,43.8,42.2,30.01,NE,42,3.0,3.0,94,0.00,,---,0.00,VWS V14.01,2013-03-18 23:23:00,
2013-03-18 19:28:00,43.7,42.1,30.01,NE,38,6.0,6.0,94,0.00,,---,0.00,VWS V14.01,2013-03-18 23:28:00,
2013-03-18 19:33:00,43.6,42.0,30.01,ENE,57,2.0,4.0,94,0.00,,---,0.00,VWS V14.01,2013-03-18 23:33:00,
2013-03-18 19:38:00,43.6,42.0,30.01,NE,36,3.0,7.0,94,0.00,,---,0.00,VWS V14.01,2013-03-18 23:38:00,
2013-03-18 19:43:00,43.6,42.0,30.01,NE,55,1.0,2.0,94,0.00,,---,0.00,VWS V14.01,2013-03-18 23:43:00,
2013-03-18 19:48:00,43.7,42.1,30.02,NNE,31,2.0,2.0,94,0.00,,---,0.00,VWS V14.01,2013-03-18 23:48:00,
2013-03-18 19:53:00,43.7,42.1,30.02,NNE,32,2.0,2.0,94,0.00,,---,0.00,VWS V14.01,2013-03-18 23:53:00,
2013-03-18 19:58:00,43.7,42.4,30.02,ENE,61,2.0,3.0,95,0.00,,---,0.00,VWS V14.01,2013-03-18 23:58:00,
2013-03-18 20:03:00,43.7,42.1,30.00,NE,46,5.0,6.0,94,0.00,,---,0.00,VWS V14.01,2013-03-19 00:03:00,
2013-03-18 20:08:00,43.7,42.1,30.00,East,81,7.0,7.0,94,0.00,,---,0.00,VWS V14.01,2013-03-19 00:08:00,
2013-03-18 20:13:00,43.7,42.1,29.99,East,96,6.0,6.0,94,0.00,,---,0.00,VWS V14.01,2013-03-19 00:13:00,
2013-03-18 20:18:00,43.7,42.1,30.00,ENE,64,4.0,5.0,94,0.00,,---,0.00,VWS V14.01,2013-03-19 00:18:00,
2013-03-18 20:23:00,43.7,42.4,30.00,NNE,32,2.0,3.0,95,0.00,,---,0.00,VWS V14.01,2013-03-19 00:23:00,
2013-03-18 20:28:00,43.7,42.4,30.00,NNE,15,3.0,3.0,95,0.00,,---,0.00,VWS V14.01,2013-03-19 00:28:00,
2013-03-18 20:33:00,43.7,42.4,30.01,ENE,68,3.0,4.0,95,0.00,,---,0.00,VWS V14.01,2013-03-19 00:33:00,
2013-03-18 20:38:00,43.7,42.4,30.00,NE,45,4.0,5.0,95,0.00,,---,0.00,VWS V14.01,2013-03-19 00:38:00,
2013-03-18 20:43:00,43.6,42.3,30.01,NE,43,1.0,2.0,95,0.00,,---,0.00,VWS V14.01,2013-03-19 00:43:00,
2013-03-18 20:48:00,43.6,42.3,30.03,NNE,26,3.0,3.0,95,0.01,,---,0.01,VWS V14.01,2013-03-19 00:48:00,
2013-03-18 20:53:00,43.6,42.3,30.04,NNW,333,4.0,6.0,95,0.01,,---,0.01,VWS V14.01,2013-03-19 00:53:00,
2013-03-18 20:58:00,43.6,42.3,30.05,North,350,6.0,6.0,95,0.01,,---,0.01,VWS V14.01,2013-03-19 00:58:00,
2013-03-18 21:02:00,43.4,42.1,30.06,West,271,4.0,8.0,95,0.01,,---,0.01,VWS V14.01,2013-03-19 01:02:00,
2013-03-18 21:07:00,43.1,41.8,30.05,ENE,58,11.0,11.0,95,0.03,,---,0.03,VWS V14.01,2013-03-19 01:07:00,
2013-03-18 21:12:00,42.8,41.5,30.04,NNW,346,8.0,11.0,95,0.03,,---,0.03,VWS V14.01,2013-03-19 01:12:00,
2013-03-18 21:17:00,42.6,41.3,30.03,NNE,13,4.0,4.0,95,0.03,,---,0.03,VWS V14.01,2013-03-19 01:17:00,
2013-03-18 21:22:00,42.6,41.3,30.03,NNE,26,4.0,4.0,95,0.03,,---,0.03,VWS V14.01,2013-03-19 01:22:00,
2013-03-18 21:27:00,42.5,41.2,30.03,NE,51,4.0,5.0,95,0.03,,---,0.03,VWS V14.01,2013-03-19 01:27:00,
2013-03-18 21:32:00,42.6,41.3,30.02,NE,50,3.0,4.0,95,0.03,,---,0.03,VWS V14.01,2013-03-19 01:32:00,
2013-03-18 21:38:00,42.6,41.3,30.01,East,86,5.0,5.0,95,0.03,,---,0.03,VWS V14.01,2013-03-19 01:38:00,
2013-03-18 21:42:00,42.6,41.3,30.01,ENE,63,4.0,4.0,95,0.06,,---,0.06,VWS V14.01,2013-03-19 01:42:00,
2013-03-18 21:48:00,42.6,41.3,30.00,ENE,67,5.0,7.0,95,0.07,,---,0.08,VWS V14.01,2013-03-19 01:48:00,
2013-03-18 21:52:00,42.5,41.2,29.99,ENE,73,5.0,7.0,95,0.08,,---,0.09,VWS V14.01,2013-03-19 01:52:00,
2013-03-18 21:57:00,42.5,41.2,29.99,East,82,6.0,7.0,95,0.11,,---,0.12,VWS V14.01,2013-03-19 01:57:00,
2013-03-18 22:02:00,42.5,41.2,29.99,ENE,69,1.0,3.0,95,0.13,,---,0.14,VWS V14.01,2013-03-19 02:02:00,
2013-03-18 22:07:00,42.5,41.2,30.00,NNW,332,3.0,4.0,95,0.11,,---,0.14,VWS V14.01,2013-03-19 02:07:00,
2013-03-18 22:12:00,42.5,41.2,30.01,NNE,23,2.0,2.0,95,0.12,,---,0.15,VWS V14.01,2013-03-19 02:12:00,
2013-03-18 22:17:00,42.5,41.2,30.00,NE,36,2.0,3.0,95,0.13,,---,0.16,VWS V14.01,2013-03-19 02:17:00,
2013-03-18 22:22:00,42.4,41.1,30.00,North,11,3.0,3.0,95,0.14,,---,0.17,VWS V14.01,2013-03-19 02:22:00,
2013-03-18 22:27:00,42.4,41.1,30.00,NE,35,2.0,2.0,95,0.14,,---,0.17,VWS V14.01,2013-03-19 02:27:00,
2013-03-18 22:32:00,42.4,41.1,30.00,North,11,2.0,3.0,95,0.14,,---,0.17,VWS V14.01,2013-03-19 02:32:00,
2013-03-18 22:37:00,42.4,41.3,30.01,NNE,31,2.0,3.0,96,0.14,,---,0.17,VWS V14.01,2013-03-19 02:37:00,
2013-03-18 22:42:00,42.3,41.2,30.01,NNW,329,4.0,4.0,96,0.11,,---,0.17,VWS V14.01,2013-03-19 02:42:00,
2013-03-18 22:47:00,42.3,41.2,30.01,NNW,329,1.0,2.0,96,0.10,,---,0.17,VWS V14.01,2013-03-19 02:47:00,
2013-03-18 22:52:00,42.3,41.2,30.00,NNW,346,2.0,3.0,96,0.08,,---,0.17,VWS V14.01,2013-03-19 02:52:00,
2013-03-18 22:57:00,42.1,41.0,30.00,WNW,300,1.0,1.0,96,0.05,,---,0.17,VWS V14.01,2013-03-19 02:57:00,
2013-03-18 23:02:00,42.1,41.0,30.00,NNW,348,1.0,1.0,96,0.03,,---,0.17,VWS V14.01,2013-03-19 03:02:00,
2013-03-18 23:07:00,42.0,40.9,30.00,WNW,300,1.0,1.0,96,0.03,,---,0.17,VWS V14.01,2013-03-19 03:07:00,
2013-03-18 23:12:00,42.0,40.9,30.00,West,269,3.0,4.0,96,0.02,,---,0.17,VWS V14.01,2013-03-19 03:12:00,
2013-03-18 23:17:00,42.0,40.9,29.99,WSW,238,1.0,1.0,96,0.01,,---,0.17,VWS V14.01,2013-03-19 03:17:00,
2013-03-18 23:22:00,41.9,40.8,29.99,NW,305,0.0,2.0,96,0.00,,---,0.17,VWS V14.01,2013-03-19 03:22:00,
2013-03-18 23:27:00,41.9,40.8,29.99,West,259,2.0,2.0,96,0.00,,---,0.17,VWS V14.01,2013-03-19 03:27:00,
2013-03-18 23:32:00,41.9,40.8,29.99,West,268,5.0,5.0,96,0.00,,---,0.17,VWS V14.01,2013-03-19 03:32:00,
2013-03-18 23:37:00,41.8,40.8,29.98,WSW,250,3.0,3.0,96,0.00,,---,0.17,VWS V14.01,2013-03-19 03:37:00,
2013-03-18 23:42:00,41.6,40.3,29.97,SSE,159,2.0,3.0,95,0.01,,---,0.18,VWS V14.01,2013-03-19 03:42:00,
2013-03-18 23:47:00,41.6,40.5,29.96,SSE,151,2.0,3.0,96,0.02,,---,0.19,VWS V14.01,2013-03-19 03:47:00,
2013-03-18 23:52:00,41.6,40.5,29.94,ESE,116,5.0,7.0,96,0.03,,---,0.20,VWS V14.01,2013-03-19 03:52:00,
2013-03-18 23:57:00,41.6,40.5,29.93,South,169,2.0,3.0,96,0.03,,---,0.20,VWS V14.01,2013-03-19 03:57:00,